Idabel, OK (74745)

7:22 AM CDT on October 31, 2014 (GMT -0500)
Fuller Farms | Change Station
CLOSE
Current Station
Personal Weather Station
Location: Haworth, OK
Elevation: 433 ft
Nearby Weather Stations

Elev 433 ft 33.82 °N, 94.71 °W | Updated 9 seconds ago

Clear
Clear
50.1 °F
Feels Like 50.1 °F
N
0.0
Wind Variable Wind from NW
Gusts 1.0 mph

Today
High -- | Low -- °F
--% Chance of Precip.
Yesterday
High -- | Low -- °F
Precip. -- in
7:37 AM 6:27 PM
First Quarter, 54% visible
Pressure 30.19 in
Visibility 10.0 miles
Clouds Clear
Dew Point 44 °F
Humidity 80%
Rainfall 0.00 in
Snow Depth Not available.
UV 0 out of 12
Pollen 4.20 out of 12
Air Quality Not available.
Flu Activity Not available.
METAR K4O4 311215Z AUTO 34007KT 10SM CLR 09/05 A3019 RMK AO2

More Conditions Fewer Conditions

Pressure 30.19 in
Visibility 10.0 miles
Clouds Clear
Dew Point 44 °F
Humidity 80%
Rainfall 0.00 in
Snow Depth Not available.
UV 0 out of 12
Pollen 4.20 out of 12
Air Quality Not available.
Flu Activity Not available.
METAR K4O4 311215Z AUTO 34007KT 10SM CLR 09/05 A3019 RMK AO2

More Conditions Fewer Conditions

10-Day Weather Forecast

Almanac

Astronomy

Oct. 31, 2014 Rise Set
Actual Time
Civil Twilight
Nautical Twilight
Astronomical Twilight
Moon
Length of Visible Light
Length of Day
Tomorrow will be .
, % of the Moon is Illuminated

Today's Extremes

State Highs State Lows

Community

WunderPhotos

Upload Photos

1,766,592 photos uploaded!

WunderBlogs® & News

Nearby

Air Quality

  Air Quality AQ Index Pollutant
Not available.

Snow Depth

Station Depth Elevation

Earthquake Activity

City Distance Mag. Time & Date
Minimum magnitude displayed is 2.5.

Coastal Water Temperatures

Place Temperature

Nearby Weather Stations